Pagrindinis puslapis
METAR-TAF:

METAR-TAF

Oro uostai :

Basra, Irakas

platuma: 30-32-56N, ilguma: 47-39-45E, Aukštis: 1 m

Dabartinis oras

Ataskaita buvo paskelbta 33 minutes, ne 04:00 UTC
Vėjas 16 kt iš Vakarų
Temperatūra 30°C
Drėgmė 29%
Slėgis 999 hPa
Matomumas 10 km arba daugiau
nėra debesų žemiau 1500 m ir nėra kamuolinių lietaus debesų

METAR: ORMM 160400Z 26016KT CAVOK 30/10 Q0999 NOSIG

Laikas: 07:33 (04:33 UTC)

Prognozė

Ataskaita buvo paskelbta 6 valandos ir 33 minutes, ne 22:00 UTC
Prognozė galioja nuo 16 metu 00 UTC su 16 metu 24 UTC
Vėjas 20 kt iš Vakarų
Matomumas: 8000 m
Laikinai
nuo 16 metu 06 UTC su 16 metu 16 UTC
Vėjas 15 kt iš Vakarų/Šiaurės Vakarų su gūsio iki 25 kt
Matomumas: 4000 m
Dulkes pustymas

TAF: ORMM 152200Z 1600/1624 28020KT 8000 NSC TEMPO 1606/1616 30015G25KT 4000 BLDU

Orai ataskaitas ir orų prognozės (METAR, TAF).

turimą stotys yra geltonos ir raudonos taškus žemėlapyje.

Perkelti pele per norėdami pamatyti stoties vardą.

Tada spustelėkite, norėdami matyti oro stebėjimo ir prognozės.

Norėdami pakeisti žemėlapį: spustelėkite ant žalios mygtukų su juodo kryžiaus žemyn,; žalią mygtuką su brūkšneliu, jei norite nutolinti; arba žalių rodyklių gretimoms žemėlapius.


METAR-TAF: